Time;durP1;ratioP1;P1;durP2;ratioP2;P2;SDS_P1;SDS_P2;PMS_P1;PMS_P2;Temp;Humidity;BMP_temperature;BMP_pressure;BME280_temperature;BME280_humidity;BME280_pressure;Samples;Min_cycle;Max_cycle;Signal;HPM_P1;HPM_P2
2023/04/01 00:01:19;;;;;;;18.15;11.80;;;;;;;3.37;72.30;98408.84;5034751;28;20028;-56
2023/04/01 00:03:45;;;;;;;20.13;12.20;;;;;;;3.39;71.88;98407.78;5027728;28;20485;-58
2023/04/01 00:06:16;;;;;;;21.05;12.18;;;;;;;3.42;71.86;98418.16;5015416;28;20069;-61
2023/04/01 00:08:41;;;;;;;20.17;12.48;;;;;;;3.38;71.33;98415.88;5015037;28;20037;-60
2023/04/01 00:11:07;;;;;;;20.23;12.48;;;;;;;3.34;71.11;98411.72;5014735;28;20034;-58
2023/04/01 00:13:32;;;;;;;19.25;12.00;;;;;;;3.29;71.46;98407.63;5014643;28;20041;-61
2023/04/01 00:15:58;;;;;;;18.45;12.15;;;;;;;3.29;72.04;98415.56;5014026;28;20029;-56
2023/04/01 00:18:24;;;;;;;20.33;12.30;;;;;;;3.33;72.13;98407.41;5017808;28;20036;-60
2023/04/01 00:20:51;;;;;;;21.95;13.05;;;;;;;3.25;71.62;98400.88;5031395;28;20456;-60
2023/04/01 00:23:18;;;;;;;19.98;13.02;;;;;;;3.24;71.44;98409.78;5034580;28;20395;-64
2023/04/01 00:25:45;;;;;;;16.38;12.52;;;;;;;3.22;71.90;98405.53;5034770;28;20072;-60
2023/04/01 00:28:11;;;;;;;21.98;12.25;;;;;;;3.19;71.77;98401.34;5024201;28;20045;-59
2023/04/01 00:30:37;;;;;;;16.88;11.73;;;;;;;3.19;71.83;98401.34;5013196;28;20216;-62
2023/04/01 00:48:41;;;;;;;16.80;11.13;;;;;;;3.30;71.80;98380.22;4997852;28;20072;-59
2023/04/01 00:51:11;;;;;;;17.50;11.80;;;;;;;3.26;71.77;98399.91;5013523;28;20468;-59
2023/04/01 00:53:42;;;;;;;16.48;11.70;;;;;;;3.25;71.68;98398.22;5014030;28;20049;-62
2023/04/01 00:56:15;;;;;;;18.42;11.98;;;;;;;3.27;71.84;98401.59;5013834;28;20433;-56
2023/04/01 00:58:46;;;;;;;17.65;11.82;;;;;;;3.27;71.88;98388.38;5014140;28;20342;-59
2023/04/01 01:01:12;;;;;;;17.88;12.40;;;;;;;3.22;72.01;98379.09;4996581;28;20034;-58
2023/04/01 01:03:37;;;;;;;19.20;11.45;;;;;;;3.24;72.03;98383.31;5012690;28;20322;-59
2023/04/01 01:06:23;;;;;;;17.10;11.60;;;;;;;3.37;72.45;98385.03;5013837;28;20349;-60
2023/04/01 01:08:52;;;;;;;;;;;;;;;3.64;71.45;98389.25;5014160;28;20461;-62
2023/04/01 01:11:26;;;;;;;17.90;11.45;;;;;;;3.40;70.83;98387.50;5014051;28;19913;-61
2023/04/01 01:14:07;;;;;;;15.00;10.48;;;;;;;3.37;71.34;98383.25;5013765;28;20029;-60
2023/04/01 01:16:41;;;;;;;17.70;11.48;;;;;;;3.28;71.91;98390.06;5024236;28;20037;-60
2023/04/01 01:19:33;;;;;;;18.67;11.52;;;;;;;3.34;72.35;98387.91;5033133;28;20048;-60
2023/04/01 01:22:14;;;;;;;15.73;11.07;;;;;;;3.26;72.43;98397.28;5033416;28;20042;-60
2023/04/01 01:24:48;;;;;;;20.35;11.32;;;;;;;3.29;72.87;98394.41;5033194;28;20033;-61
2023/04/01 01:27:18;;;;;;;17.40;12.00;;;;;;;3.33;72.10;98397.69;5032792;28;20033;-61
2023/04/01 01:51:48;;;;;;;14.63;10.68;;;;;;;3.39;72.34;98397.22;4993960;28;20131;-56
2023/04/01 01:54:17;;;;;;;17.15;11.18;;;;;;;3.41;72.06;98402.41;4993297;28;20133;-61
2023/04/01 01:56:48;;;;;;;17.85;11.45;;;;;;;3.41;72.55;98395.28;4993228;28;20026;-56
2023/04/01 01:59:17;;;;;;;15.13;10.75;;;;;;;3.43;72.32;98403.97;5008891;28;20108;-57
2023/04/01 02:01:48;;;;;;;15.52;11.60;;;;;;;3.47;71.67;98406.38;5011518;28;20042;-61
2023/04/01 02:04:16;;;;;;;17.45;11.60;;;;;;;3.44;71.79;98397.72;5012678;28;20034;-56
2023/04/01 02:06:47;;;;;;;17.35;11.77;;;;;;;3.47;71.78;98396.66;5012796;28;20042;-56
2023/04/01 02:09:13;;;;;;;19.27;12.45;;;;;;;3.47;71.20;98398.44;5013053;28;20062;-59
2023/04/01 02:11:50;;;;;;;17.25;12.07;;;;;;;3.51;72.22;98403.41;5012887;28;20037;-57
2023/04/01 02:14:44;;;;;;;17.08;11.32;;;;;;;3.56;72.69;98409.19;4995175;28;20031;-61
2023/04/01 02:17:26;;;;;;;19.73;11.80;;;;;;;3.67;71.97;98407.56;4994602;28;20042;-56
2023/04/01 02:19:56;;;;;;;22.25;12.57;;;;;;;3.66;72.14;98409.34;4992790;28;20041;-60
2023/04/01 02:22:26;;;;;;;17.38;11.63;;;;;;;3.69;71.92;98403.00;5000183;28;20137;-59
2023/04/01 02:24:56;;;;;;;18.48;12.77;;;;;;;3.67;71.47;98400.44;5012835;28;20113;-59
2023/04/01 02:27:22;;;;;;;18.15;12.82;;;;;;;3.71;70.63;98407.19;5012666;28;20030;-60
2023/04/01 02:29:47;;;;;;;21.50;13.93;;;;;;;3.72;70.49;98397.47;5012810;28;20046;-54
2023/04/01 02:32:14;;;;;;;23.73;15.13;;;;;;;3.76;70.37;98412.16;5011761;28;20038;-60
2023/04/01 02:34:40;;;;;;;22.73;15.40;;;;;;;3.76;69.97;98409.50;5012519;28;20029;-57
2023/04/01 02:37:06;;;;;;;21.35;15.35;;;;;;;3.76;70.54;98403.38;5011430;28;20049;-57
2023/04/01 02:39:31;;;;;;;21.65;14.80;;;;;;;3.80;70.29;98412.78;5011317;28;20038;-58
2023/04/01 02:41:57;;;;;;;21.33;14.02;;;;;;;3.80;70.03;98410.94;5012371;28;20030;-59
2023/04/01 02:44:22;;;;;;;23.25;13.68;;;;;;;3.68;69.87;98390.72;5012492;28;20030;-58
2023/04/01 02:46:48;;;;;;;18.58;11.98;;;;;;;3.76;69.92;98417.44;5012119;28;20034;-58
2023/04/01 02:49:14;;;;;;;18.15;12.07;;;;;;;3.71;70.03;98407.19;5010242;28;20307;-59
2023/04/01 02:51:39;;;;;;;14.93;10.90;;;;;;;3.75;69.31;98407.81;5020472;28;20124;-59
2023/04/01 02:54:05;;;;;;;14.68;11.30;;;;;;;3.69;69.94;98418.88;5026029;28;20061;-58
2023/04/01 02:56:30;;;;;;;16.48;11.02;;;;;;;3.70;70.60;98425.84;5026216;28;20109;-60
2023/04/01 02:58:56;;;;;;;15.02;11.25;;;;;;;3.66;70.38;98408.53;5012360;28;20038;-65
2023/04/01 03:01:22;;;;;;;15.23;10.50;;;;;;;3.77;70.63;98410.34;5013678;28;20026;-61
2023/04/01 03:03:47;;;;;;;12.77;10.00;;;;;;;3.58;69.82;98380.81;5014143;28;20044;-58
2023/04/01 03:06:15;;;;;;;16.00;10.32;;;;;;;3.77;69.95;98421.78;5011118;28;20431;-60
2023/04/01 03:08:40;;;;;;;13.85;10.30;;;;;;;3.76;69.73;98422.75;5017034;28;20057;-58
2023/04/01 03:11:06;;;;;;;13.40;10.45;;;;;;;3.77;69.61;98416.47;5031795;28;20440;-59
2023/04/01 03:13:32;;;;;;;12.05;9.13;;;;;;;3.79;69.37;98419.84;5033639;28;20044;-59
2023/04/01 03:15:58;;;;;;;13.10;10.15;;;;;;;3.77;69.33;98431.53;5034701;28;20030;-58
2023/04/01 03:18:24;;;;;;;13.52;10.15;;;;;;;3.75;69.07;98429.00;5033202;28;20041;-60
2023/04/01 03:20:49;;;;;;;15.80;11.02;;;;;;;3.73;69.88;98430.91;5015488;28;20444;-55
2023/04/01 03:23:17;;;;;;;13.05;9.90;;;;;;;3.75;69.90;98425.50;5015489;28;20129;-59
2023/04/01 03:25:42;;;;;;;14.45;10.20;;;;;;;3.78;70.40;98443.81;5016020;28;20049;-60
2023/04/01 03:28:08;;;;;;;14.55;10.88;;;;;;;3.79;70.03;98440.22;5015569;28;20040;-58
2023/04/01 03:30:34;;;;;;;14.98;10.70;;;;;;;3.62;69.34;98410.53;5015361;28;20037;-57
2023/04/01 03:33:00;;;;;;;16.23;10.27;;;;;;;3.80;69.44;98439.25;5014427;28;20378;-57
2023/04/01 03:35:26;;;;;;;15.50;10.82;;;;;;;3.77;69.70;98442.97;5015099;28;20030;-56
2023/04/01 03:37:52;;;;;;;13.88;10.10;;;;;;;3.72;69.77;98435.34;5015418;28;20081;-60
2023/04/01 03:40:18;;;;;;;14.90;10.32;;;;;;;3.76;69.84;98443.91;5032608;28;20242;-57
2023/04/01 03:42:43;;;;;;;16.38;11.07;;;;;;;3.81;69.96;98443.59;5035125;28;20432;-57
2023/04/01 03:45:11;;;;;;;15.07;11.45;;;;;;;3.79;69.83;98446.34;5035295;28;20468;-59
2023/04/01 03:47:37;;;;;;;16.02;11.18;;;;;;;3.80;69.94;98453.31;5035003;28;20025;-60
2023/04/01 03:50:03;;;;;;;16.25;11.05;;;;;;;3.81;69.77;98457.66;5019105;28;20049;-58
2023/04/01 03:52:29;;;;;;;13.98;10.68;;;;;;;3.62;70.36;98425.56;5014866;28;20164;-61
2023/04/01 03:54:55;;;;;;;17.75;10.77;;;;;;;3.83;70.33;98460.19;5015592;28;20105;-57
2023/04/01 03:57:20;;;;;;;15.27;11.05;;;;;;;3.83;70.44;98460.19;5014992;28;20022;-57
2023/04/01 03:59:46;;;;;;;14.82;10.68;;;;;;;3.88;70.23;98464.19;5027143;28;20451;-56
2023/04/01 04:02:11;;;;;;;19.55;11.65;;;;;;;3.89;69.97;98478.25;5034785;28;20034;-60
2023/04/01 04:04:37;;;;;;;17.60;11.40;;;;;;;3.77;69.92;98461.47;5034977;28;20094;-56
2023/04/01 04:07:02;;;;;;;19.75;11.77;;;;;;;3.85;70.33;98467.03;5030426;28;20026;-57
2023/04/01 04:09:30;;;;;;;17.02;11.70;;;;;;;3.95;70.53;98485.72;5023726;28;20041;-53
2023/04/01 04:11:56;;;;;;;18.20;12.70;;;;;;;3.92;70.18;98471.91;5034575;28;20037;-57
2023/04/01 04:14:22;;;;;;;18.48;12.05;;;;;;;3.96;70.15;98479.47;5034675;28;20044;-60
2023/04/01 04:16:48;;;;;;;18.55;12.52;;;;;;;3.97;70.01;98480.34;5034538;28;20029;-56
2023/04/01 04:19:14;;;;;;;16.05;11.52;;;;;;;3.85;70.64;98461.75;5024972;28;20038;-59
2023/04/01 04:21:40;;;;;;;16.73;11.88;;;;;;;4.02;69.99;98480.84;5013579;28;20050;-57
2023/04/01 04:24:06;;;;;;;17.27;12.20;;;;;;;4.02;70.06;98486.13;5014564;28;20126;-58
2023/04/01 04:26:32;;;;;;;18.40;12.43;;;;;;;4.06;69.84;98490.22;5014085;28;20471;-55
2023/04/01 04:28:57;;;;;;;17.48;11.50;;;;;;;4.13;70.01;98496.78;5019720;28;20448;-59
2023/04/01 04:31:24;;;;;;;21.77;12.60;;;;;;;4.16;69.78;98493.03;5033660;28;20077;-54
2023/04/01 04:33:51;;;;;;;18.70;13.00;;;;;;;4.17;69.28;98497.38;5033975;28;20056;-57
2023/04/01 04:36:17;;;;;;;17.35;11.82;;;;;;;4.14;69.04;98493.16;5033790;28;20056;-59
2023/04/01 04:38:43;;;;;;;18.05;11.90;;;;;;;4.13;69.48;98490.63;5029264;28;20032;-56
2023/04/01 04:41:12;;;;;;;16.15;11.45;;;;;;;4.24;68.97;98493.31;5017566;28;20029;-55
2023/04/01 04:43:39;;;;;;;14.35;10.85;;;;;;;4.24;69.15;98497.75;5032778;28;20353;-56
2023/04/01 04:46:09;;;;;;;15.93;11.02;;;;;;;4.31;69.30;98493.66;5033443;28;20033;-60
2023/04/01 04:48:35;;;;;;;17.88;11.90;;;;;;;4.33;69.07;98493.56;5031663;28;20030;-58
2023/04/01 04:51:02;;;;;;;15.57;11.02;;;;;;;4.15;69.15;98460.41;5012292;28;20048;-57
2023/04/01 04:53:27;;;;;;;15.68;11.38;;;;;;;4.21;68.40;98469.69;5013440;28;20041;-56
2023/04/01 04:55:53;;;;;;;20.95;11.90;;;;;;;4.45;68.55;98512.03;5013801;28;20034;-56
2023/04/01 04:58:19;;;;;;;15.60;11.80;;;;;;;4.44;68.04;98515.63;5014659;28;20034;-58
2023/04/01 05:00:45;;;;;;;17.42;11.40;;;;;;;4.45;68.05;98519.97;5032525;28;20084;-56
2023/04/01 05:03:12;;;;;;;15.95;11.45;;;;;;;4.48;67.95;98526.00;5033159;28;20037;-58
2023/04/01 05:05:38;;;;;;;16.95;11.88;;;;;;;4.29;68.49;98490.28;5033592;28;20033;-57
2023/04/01 05:08:04;;;;;;;18.10;12.32;;;;;;;4.51;67.94;98525.75;5033202;28;20030;-56
2023/04/01 05:10:31;;;;;;;14.88;11.40;;;;;;;4.56;67.49;98528.91;5014652;28;20053;-56
2023/04/01 05:12:56;;;;;;;16.60;11.40;;;;;;;4.61;68.07;98524.09;5012961;28;20037;-57
2023/04/01 05:15:22;;;;;;;18.58;12.20;;;;;;;4.66;67.97;98526.38;5023343;28;20021;-62
2023/04/01 05:17:47;;;;;;;17.13;11.68;;;;;;;4.67;68.01;98522.78;5028337;28;20056;-62
2023/04/01 05:20:13;;;;;;;18.58;12.40;;;;;;;4.76;67.64;98537.13;5017100;28;20026;-62
2023/04/01 05:22:39;;;;;;;18.17;13.57;;;;;;;4.75;67.50;98538.94;5014509;28;20030;-63
2023/04/01 05:25:05;;;;;;;15.63;12.07;;;;;;;4.74;67.94;98532.78;5020680;28;20048;-62
2023/04/01 05:27:31;;;;;;;18.88;12.68;;;;;;;4.76;67.92;98530.03;4997528;28;20109;-62
2023/04/01 05:29:57;;;;;;;17.13;12.45;;;;;;;4.82;68.20;98523.38;5038226;28;20113;-63
2023/04/01 05:32:22;;;;;;;14.77;11.73;;;;;;;4.93;67.58;98534.00;5026208;28;20052;-62
2023/04/01 05:34:50;;;;;;;17.52;11.85;;;;;;;5.01;67.28;98539.56;5017873;28;20045;-62
2023/04/01 05:37:16;;;;;;;17.27;12.13;;;;;;;5.02;67.13;98535.94;5022795;28;20052;-62
2023/04/01 05:39:42;;;;;;;17.05;11.68;;;;;;;5.09;66.83;98535.47;5025519;28;20437;-62
2023/04/01 05:42:08;;;;;;;14.85;11.45;;;;;;;5.14;67.16;98536.78;5026909;28;20443;-62
2023/04/01 05:44:34;;;;;;;16.13;12.15;;;;;;;5.17;66.64;98533.88;5026124;28;20035;-61
2023/04/01 05:46:59;;;;;;;15.00;11.13;;;;;;;5.20;66.52;98535.47;5030560;28;20040;-54
2023/04/01 05:49:25;;;;;;;16.65;11.63;;;;;;;5.26;66.67;98544.75;5022256;28;20026;-63
2023/04/01 05:51:51;;;;;;;15.23;11.40;;;;;;;5.26;66.25;98548.22;5012840;28;20038;-62
2023/04/01 05:54:17;;;;;;;17.70;12.27;;;;;;;5.18;66.57;98534.75;5012866;28;20037;-60
2023/04/01 05:56:42;;;;;;;18.17;12.10;;;;;;;5.14;66.46;98522.69;5012312;28;20433;-61
2023/04/01 05:59:10;;;;;;;17.63;11.88;;;;;;;5.32;66.46;98555.72;5020052;28;20037;-61
2023/04/01 06:01:36;;;;;;;17.40;12.48;;;;;;;5.28;66.19;98545.47;5015267;28;20036;-62
2023/04/01 06:04:01;;;;;;;16.00;12.30;;;;;;;5.40;66.19;98564.88;5031650;28;20021;-61
2023/04/01 06:06:28;;;;;;;17.92;12.63;;;;;;;5.51;65.75;98559.53;5031394;28;20092;-59
2023/04/01 06:08:57;;;;;;;16.70;11.82;;;;;;;5.68;65.99;98555.56;5026204;28;20049;-60
2023/04/01 06:11:37;;;;;;;15.15;11.25;;;;;;;5.89;64.99;98555.63;5012660;28;20453;-59
2023/04/01 06:14:24;;;;;;;13.57;10.70;;;;;;;6.30;64.79;98560.34;5012812;28;20072;-60
2023/04/01 06:17:11;;;;;;;12.90;9.90;;;;;;;6.47;63.11;98554.44;5011470;28;20120;-61
2023/04/01 06:20:14;;;;;;;16.48;10.98;;;;;;;6.74;62.78;98553.06;5027260;28;20478;-61
2023/04/01 06:22:43;;;;;;;12.13;9.40;;;;;;;6.91;61.32;98556.09;5032358;28;20033;-63
2023/04/01 06:25:35;;;;;;;13.70;10.05;;;;;;;7.22;61.33;98556.09;5032373;28;20037;-60
2023/04/01 06:28:29;;;;;;;13.05;10.45;;;;;;;7.43;60.42;98555.19;5031412;28;20041;-60
2023/04/01 06:30:57;;;;;;;13.95;11.00;;;;;;;7.52;59.70;98562.41;5012441;28;20353;-61
2023/04/01 06:33:59;;;;;;;13.35;10.60;;;;;;;7.54;59.78;98570.22;5012464;28;20037;-61
2023/04/01 06:36:58;;;;;;;13.63;10.57;;;;;;;7.21;59.96;98567.72;5012344;28;20045;-59
2023/04/01 06:39:30;;;;;;;16.13;11.27;;;;;;;6.92;60.24;98567.59;5024595;28;20464;-60
2023/04/01 06:42:03;;;;;;;13.50;10.73;;;;;;;6.75;60.54;98573.41;5031134;28;20065;-60
2023/04/01 06:44:48;;;;;;;14.80;10.32;;;;;;;6.85;61.16;98570.75;5032170;28;20045;-62
2023/04/01 06:47:22;;;;;;;14.63;10.70;;;;;;;6.90;60.72;98575.69;5032133;28;20475;-62
2023/04/01 06:50:29;;;;;;;16.75;11.00;;;;;;;7.17;61.34;98564.50;5019868;28;20062;-62
2023/04/01 06:52:55;;;;;;;13.90;10.65;;;;;;;7.31;59.84;98575.75;5016336;28;20074;-61
2023/04/01 06:55:25;;;;;;;14.77;10.50;;;;;;;7.41;59.56;98579.31;5015982;28;20077;-61
2023/04/01 06:57:55;;;;;;;11.05;9.05;;;;;;;7.49;58.87;98583.13;5014887;28;20116;-61
2023/04/01 07:00:32;;;;;;;14.50;9.02;;;;;;;7.55;58.56;98602.06;5035545;28;20026;-59
2023/04/01 07:03:15;;;;;;;9.38;7.50;;;;;;;7.68;58.55;98600.97;5035637;28;20195;-63
2023/04/01 07:05:41;;;;;;;10.70;8.35;;;;;;;7.51;58.04;98567.84;5035472;28;20040;-62
2023/04/01 07:08:16;;;;;;;16.88;8.68;;;;;;;7.84;58.18;98595.16;5034222;28;20483;-61
2023/04/01 07:10:44;;;;;;;10.93;8.07;;;;;;;8.10;57.19;98590.13;5015915;28;20140;-61
2023/04/01 07:13:21;;;;;;;11.75;7.70;;;;;;;8.48;56.67;98591.13;5015836;28;20034;-61
2023/04/01 07:15:58;;;;;;;13.23;8.13;;;;;;;8.80;55.88;98577.66;5016052;28;20030;-62
2023/04/01 07:18:32;;;;;;;10.70;7.28;;;;;;;9.05;54.37;98582.34;5022352;28;20433;-62
2023/04/01 07:20:58;;;;;;;10.43;7.57;;;;;;;9.12;53.71;98590.63;5035455;28;20037;-62
2023/04/01 07:23:38;;;;;;;10.63;7.82;;;;;;;9.35;54.46;98595.63;5035138;28;20414;-60
2023/04/01 07:26:16;;;;;;;10.88;8.25;;;;;;;9.96;53.26;98589.84;5035397;28;20021;-58
2023/04/01 07:28:42;;;;;;;10.98;8.18;;;;;;;10.75;50.81;98590.09;5025247;28;20026;-60
2023/04/01 07:31:16;;;;;;;10.82;8.27;;;;;;;11.49;48.38;98584.34;5014501;28;20412;-62
2023/04/01 07:33:48;;;;;;;9.68;7.95;;;;;;;11.95;47.44;98599.25;5014652;28;20038;-61
2023/04/01 07:36:24;;;;;;;12.98;8.52;;;;;;;12.13;46.84;98569.66;5015462;28;20037;-62
2023/04/01 07:38:59;;;;;;;15.88;8.38;;;;;;;12.53;45.57;98596.69;5024871;28;20030;-61
2023/04/01 07:41:55;;;;;;;13.02;8.60;;;;;;;13.34;46.10;98594.97;5034892;28;20045;-62
2023/04/01 07:44:26;;;;;;;;;;;;;;;14.18;46.97;98596.28;5035624;28;20125;-62
2023/04/01 07:47:16;;;;;;;11.20;8.65;;;;;;;13.83;44.10;98593.13;5034008;28;19992;-62
2023/04/01 07:50:16;;;;;;;16.02;9.60;;;;;;;13.59;44.37;98602.97;5017759;28;20419;-63
2023/04/01 07:52:53;;;;;;;14.50;9.85;;;;;;;13.45;44.28;98604.53;5013878;28;20052;-62
2023/04/01 07:55:45;;;;;;;16.20;9.80;;;;;;;13.70;44.12;98593.69;5015379;28;20025;-62
2023/04/01 07:58:46;;;;;;;14.75;10.18;;;;;;;13.69;43.19;98612.69;5018836;28;20036;-65
2023/04/01 08:01:21;;;;;;;15.80;10.80;;;;;;;13.72;42.42;98617.72;5033081;28;20405;-63
2023/04/01 08:03:47;;;;;;;16.58;10.80;;;;;;;13.79;41.37;98618.72;5028887;28;20045;-65
2023/04/01 08:06:55;;;;;;;17.23;10.80;;;;;;;14.04;42.84;98623.97;5024090;28;20025;-62
2023/04/01 08:09:23;;;;;;;17.52;11.90;;;;;;;13.88;40.65;98617.66;5034227;28;20037;-62
2023/04/01 08:12:01;;;;;;;15.15;12.10;;;;;;;13.93;42.16;98620.66;5034466;28;20129;-62
2023/04/01 08:14:55;;;;;;;18.40;12.15;;;;;;;13.80;41.18;98620.38;5034726;28;20084;-62
2023/04/01 08:17:36;;;;;;;18.00;11.75;;;;;;;13.80;41.64;98617.69;5032717;28;20089;-60
2023/04/01 08:20:04;;;;;;;14.15;10.45;;;;;;;13.71;40.42;98621.41;5014373;28;20910;-62
2023/04/01 08:22:40;;;;;;;16.65;9.85;;;;;;;13.76;40.16;98619.06;5013995;28;20876;-61
2023/04/01 08:25:13;;;;;;;;;;;;;;;14.42;41.98;98624.06;5033034;28;20035;-61
2023/04/01 08:27:47;;;;;;;15.68;10.23;;;;;;;14.28;39.48;98619.47;5033251;28;20349;-60
2023/04/01 08:30:32;;;;;;;16.27;9.63;;;;;;;14.67;39.48;98618.50;5033170;28;20061;-61
2023/04/01 08:33:19;;;;;;;20.90;10.85;;;;;;;15.32;38.87;98613.59;5033585;28;20048;-61
2023/04/01 08:35:55;;;;;;;17.67;10.73;;;;;;;15.82;36.15;98618.41;5032654;28;20095;-61
2023/04/01 08:38:28;;;;;;;22.55;11.52;;;;;;;16.03;35.81;98616.84;5033540;28;20349;-60
2023/04/01 08:41:01;;;;;;;17.55;11.73;;;;;;;15.78;34.51;98617.94;5032592;28;20352;-60
2023/04/01 08:43:50;;;;;;;19.90;12.10;;;;;;;15.66;37.30;98624.84;5021255;28;20030;-62
2023/04/01 08:47:03;;;;;;;15.82;11.65;;;;;;;15.17;38.43;98631.59;5013242;28;20124;-61
2023/04/01 08:49:42;;;;;;;19.50;11.40;;;;;;;14.35;37.94;98633.88;5012647;28;20418;-62
2023/04/01 08:52:33;;;;;;;18.45;11.05;;;;;;;13.87;39.50;98632.13;5013468;28;20046;-61
2023/04/01 08:55:16;;;;;;;18.25;11.48;;;;;;;13.57;39.21;98642.66;5013441;28;20361;-61
2023/04/01 08:57:51;;;;;;;20.63;11.93;;;;;;;13.60;39.71;98636.94;5014326;28;20101;-60
2023/04/01 09:00:34;;;;;;;18.35;11.48;;;;;;;13.49;40.19;98638.13;5014028;28;20053;-61
2023/04/01 09:03:16;;;;;;;20.92;12.10;;;;;;;13.26;40.06;98646.06;5013117;28;20029;-62
2023/04/01 09:06:25;;;;;;;21.83;12.25;;;;;;;13.02;41.35;98645.06;5014322;28;20022;-60
2023/04/01 09:09:06;;;;;;;18.45;11.90;;;;;;;12.81;40.53;98653.63;5009324;28;20646;-61
2023/04/01 09:11:44;;;;;;;19.25;11.93;;;;;;;12.36;40.10;98647.69;5033190;28;20025;-61
2023/04/01 09:14:22;;;;;;;17.58;11.25;;;;;;;12.06;38.85;98648.13;5026107;28;20036;-61
2023/04/01 09:17:14;;;;;;;16.90;11.02;;;;;;;12.16;40.69;98650.66;5029315;28;20029;-62
2023/04/01 09:20:16;;;;;;;20.63;12.27;;;;;;;12.14;41.11;98655.34;5032875;28;20048;-63
2023/04/01 09:22:51;;;;;;;19.58;13.05;;;;;;;11.99;41.03;98665.00;5031700;28;20040;-61
2023/04/01 09:25:22;;;;;;;17.75;13.05;;;;;;;11.83;40.58;98655.03;5032690;28;20399;-60
2023/04/01 09:28:02;;;;;;;17.70;11.55;;;;;;;11.70;40.80;98650.97;5031151;28;20033;-59
2023/04/01 09:30:32;;;;;;;18.92;11.63;;;;;;;11.59;40.48;98654.78;5029667;28;20076;-64
2023/04/01 09:33:22;;;;;;;19.30;12.23;;;;;;;11.55;41.97;98664.09;5021405;28;20048;-59
2023/04/01 09:35:59;;;;;;;18.40;11.82;;;;;;;11.24;41.72;98661.91;5031185;28;20083;-58
2023/04/01 09:38:55;;;;;;;20.30;12.82;;;;;;;11.20;42.55;98668.59;5031276;28;20120;-56
2023/04/01 09:41:21;;;;;;;22.33;11.85;;;;;;;11.03;42.41;98668.47;5031640;28;20467;-60
2023/04/01 09:44:25;;;;;;;20.20;11.95;;;;;;;11.04;42.84;98675.50;5030859;28;20033;-58
2023/04/01 09:46:56;;;;;;;19.23;10.77;;;;;;;11.03;42.13;98664.94;5030030;28;20053;-58
2023/04/01 09:49:56;;;;;;;23.83;11.60;;;;;;;11.20;42.77;98673.94;5031039;28;20033;-56
2023/04/01 09:52:41;;;;;;;18.27;12.05;;;;;;;10.93;42.43;98627.56;5030790;28;20128;-54
2023/04/01 09:55:43;;;;;;;20.50;12.43;;;;;;;11.34;42.68;98672.53;5030886;28;20118;-55
2023/04/01 09:58:09;;;;;;;23.10;12.68;;;;;;;11.38;43.05;98673.91;5025158;28;20077;-54
2023/04/01 10:00:46;;;;;;;18.45;12.27;;;;;;;11.58;41.66;98687.94;5013039;28;20123;-60
2023/04/01 10:03:45;;;;;;;18.20;11.55;;;;;;;11.78;41.77;98679.66;5013333;28;20026;-60
2023/04/01 10:06:13;;;;;;;18.65;11.50;;;;;;;11.78;40.89;98691.22;5013064;28;20112;-59
2023/04/01 10:09:07;;;;;;;18.52;11.25;;;;;;;11.81;40.75;98695.41;5012983;28;20045;-54
2023/04/01 10:11:54;;;;;;;18.27;11.10;;;;;;;11.78;41.48;98691.22;5013039;28;20036;-55
2023/04/01 10:14:35;;;;;;;18.02;11.00;;;;;;;11.52;40.75;98696.59;5011868;28;20404;-58
2023/04/01 10:17:19;;;;;;;15.00;9.82;;;;;;;11.38;41.37;98705.22;5012868;28;20034;-56
2023/04/01 10:19:44;;;;;;;15.32;9.60;;;;;;;11.19;40.39;98701.72;5013101;28;20097;-57
2023/04/01 10:22:28;;;;;;;13.57;7.78;;;;;;;11.25;40.92;98706.47;5018749;28;20120;-60
2023/04/01 10:25:22;;;;;;;13.82;7.85;;;;;;;11.18;40.87;98710.78;5036684;28;20040;-58
2023/04/01 10:28:26;;;;;;;13.02;7.07;;;;;;;11.15;41.28;98711.91;5035501;28;21600;-58
2023/04/01 10:31:13;;;;;;;13.20;8.00;;;;;;;10.95;41.15;98702.34;5034173;28;20631;-59
2023/04/01 10:34:06;;;;;;;12.15;7.80;;;;;;;10.98;41.76;98710.13;5036317;28;20954;-59
2023/04/01 10:36:52;;;;;;;11.20;7.75;;;;;;;11.11;41.56;98710.53;5036074;28;20067;-58
2023/04/01 10:39:36;;;;;;;9.68;7.00;;;;;;;11.16;39.91;98713.59;5036820;28;20045;-60
2023/04/01 10:42:39;;;;;;;14.63;7.57;;;;;;;11.23;40.98;98719.19;5036152;28;20037;-60
2023/04/01 10:45:41;;;;;;;10.85;6.43;;;;;;;11.24;40.89;98720.03;5036300;28;20033;-58
2023/04/01 10:48:17;;;;;;;10.07;6.93;;;;;;;11.18;40.57;98710.78;5016422;28;20053;-58
2023/04/01 10:51:25;;;;;;;12.85;7.80;;;;;;;11.22;41.42;98716.66;5016115;28;20136;-59
2023/04/01 10:54:12;;;;;;;9.32;6.80;;;;;;;11.09;40.79;98725.94;5015198;28;20357;-61
2023/04/01 10:57:00;;;;;;;8.50;6.53;;;;;;;10.98;41.42;98720.81;5016094;28;20033;-57
2023/04/01 10:59:48;;;;;;;8.75;6.60;;;;;;;10.94;41.64;98720.28;5016517;28;20545;-59
2023/04/01 11:02:51;;;;;;;11.23;6.40;;;;;;;10.96;41.23;98725.47;5016176;28;20057;-57
2023/04/01 11:05:53;;;;;;;11.57;6.78;;;;;;;10.94;41.28;98717.59;5016257;28;20050;-59
2023/04/01 11:08:53;;;;;;;11.13;7.55;;;;;;;10.91;41.57;98721.41;5016287;28;20038;-56
2023/04/01 11:11:25;;;;;;;10.48;7.00;;;;;;;10.94;41.39;98719.41;5030931;28;20470;-56
2023/04/01 11:14:14;;;;;;;11.00;6.80;;;;;;;11.15;40.82;98732.50;5036113;28;20041;-58
2023/04/01 11:16:50;;;;;;;8.98;7.07;;;;;;;10.74;40.65;98700.84;5035563;28;20026;-55
2023/04/01 11:19:42;;;;;;;12.23;7.15;;;;;;;10.64;41.12;98725.03;5035675;28;20060;-57
2023/04/01 11:22:17;;;;;;;10.88;6.68;;;;;;;10.55;41.55;98720.56;5035284;28;20079;-60
2023/04/01 11:25:26;;;;;;;11.48;6.45;;;;;;;10.64;42.28;98717.00;5031381;28;20037;-58
2023/04/01 11:28:12;;;;;;;11.25;6.55;;;;;;;10.66;41.39;98717.69;5016194;28;20050;-57
2023/04/01 11:30:55;;;;;;;10.73;7.32;;;;;;;10.66;40.88;98720.34;5015074;28;20417;-56
2023/04/01 11:33:36;;;;;;;11.55;6.18;;;;;;;10.70;41.12;98729.75;5015384;28;20026;-54
2023/04/01 11:36:20;;;;;;;8.85;6.38;;;;;;;10.81;40.86;98725.16;5015697;28;20346;-58
2023/04/01 11:39:27;;;;;;;13.27;6.57;;;;;;;10.95;41.28;98726.47;5015389;28;20044;-56
2023/04/01 11:42:17;;;;;;;11.90;6.55;;;;;;;11.19;40.58;98728.53;5015342;28;20044;-57
2023/04/01 11:45:01;;;;;;;14.30;6.80;;;;;;;11.38;39.98;98724.00;5015176;28;20042;-53
2023/04/01 11:47:52;;;;;;;11.90;6.88;;;;;;;11.62;39.54;98726.84;5015100;28;20445;-54
2023/04/01 11:50:26;;;;;;;10.98;6.90;;;;;;;11.89;38.67;98734.84;5015954;28;20054;-55
2023/04/01 11:53:25;;;;;;;10.25;6.43;;;;;;;12.09;38.40;98738.19;5015239;28;20123;-60
2023/04/01 11:55:59;;;;;;;10.52;6.28;;;;;;;12.18;37.75;98731.00;5014517;28;20377;-62
2023/04/01 11:58:48;;;;;;;11.75;6.43;;;;;;;12.09;38.07;98707.81;5015133;28;20030;-69
2023/04/01 12:01:25;;;;;;;10.13;6.20;;;;;;;12.39;37.65;98730.59;5014777;28;20034;-59
2023/04/01 12:04:54;;;;;;;10.60;6.82;;;;;;;12.59;38.32;98738.38;5014664;28;20060;-59
2023/04/01 12:07:38;;;;;;;13.50;6.53;;;;;;;12.47;38.08;98727.91;4992928;28;20193;-56
2023/04/01 12:10:06;;;;;;;10.95;6.50;;;;;;;12.44;37.85;98727.41;5014403;28;20077;-60
2023/04/01 12:12:55;;;;;;;9.75;7.00;;;;;;;12.61;38.55;98749.78;5015641;28;20085;-58
2023/04/01 12:15:48;;;;;;;13.02;6.43;;;;;;;12.57;38.32;98721.56;5034618;28;20504;-59
2023/04/01 12:18:32;;;;;;;9.32;5.80;;;;;;;12.71;38.14;98745.09;5034400;28;20048;-54
2023/04/01 12:21:06;;;;;;;12.02;6.15;;;;;;;12.71;38.14;98741.59;5033162;28;20124;-56
2023/04/01 12:23:53;;;;;;;9.98;6.10;;;;;;;12.70;37.35;98743.41;5034067;28;20033;-59
2023/04/01 12:26:19;;;;;;;8.75;5.57;;;;;;;12.45;37.67;98737.16;5032861;28;20044;-58
2023/04/01 12:28:53;;;;;;;9.23;5.80;;;;;;;12.48;38.08;98739.50;5034344;28;20038;-57
2023/04/01 12:31:34;;;;;;;10.57;5.90;;;;;;;12.62;38.60;98746.91;5034019;28;20055;-58
2023/04/01 12:34:32;;;;;;;12.32;5.95;;;;;;;12.58;37.50;98739.38;5033900;28;20365;-59
2023/04/01 12:37:20;;;;;;;12.40;5.57;;;;;;;12.69;37.87;98741.72;5031362;28;20041;-56
2023/04/01 12:39:49;;;;;;;10.25;6.35;;;;;;;12.54;37.28;98735.31;5033281;28;20060;-58
2023/04/01 12:42:38;;;;;;;8.85;5.97;;;;;;;12.58;38.10;98740.19;5031416;28;20379;-62
2023/04/01 12:45:30;;;;;;;8.63;5.32;;;;;;;12.35;38.38;98700.53;5032873;28;20056;-56